Time;durP1;ratioP1;P1;durP2;ratioP2;P2;SDS_P1;SDS_P2;PMS_P1;PMS_P2;Temp;Humidity;BMP_temperature;BMP_pressure;BME280_temperature;BME280_humidity;BME280_pressure;Samples;Min_cycle;Max_cycle;Signal;HPM_P1;HPM_P2
2021/03/06 00:01:57;;;;;;;7.07;4.90;;;;;;;;;;5043695;28;20220;-79
2021/03/06 00:04:25;;;;;;;9.13;5.30;;;;;;;;;;5035062;28;20601;-81
2021/03/06 00:06:53;;;;;;;8.53;4.83;;;;;;;;;;5052236;28;20230;-79
2021/03/06 00:09:20;;;;;;;6.97;5.67;;;;;;;;;;5040621;28;20231;-78
2021/03/06 00:11:48;;;;;;;8.47;6.70;;;;;;;;;;5044028;28;20230;-78
2021/03/06 00:14:16;;;;;;;8.23;6.87;;;;;;;;;;5047219;28;20231;-79
2021/03/06 00:16:43;;;;;;;9.43;7.30;;;;;;;;;;5046292;28;20227;-79
2021/03/06 00:19:11;;;;;;;8.23;7.43;;;;;;;;;;5049168;28;20236;-79
2021/03/06 00:21:38;;;;;;;8.27;7.20;;;;;;;;;;5043097;28;20238;-79
2021/03/06 00:24:07;;;;;;;8.30;7.03;;;;;;;;;;5026728;28;20240;-80
2021/03/06 00:26:35;;;;;;;9.23;7.67;;;;;;;;;;5040064;28;20238;-79
2021/03/06 00:29:03;;;;;;;11.67;8.00;;;;;;;;;;5051147;28;20715;-79
2021/03/06 00:31:31;;;;;;;9.97;8.50;;;;;;;;;;5047178;28;20227;-80
2021/03/06 00:33:58;;;;;;;10.07;7.70;;;;;;;;;;5047296;28;20696;-79
2021/03/06 00:36:26;;;;;;;9.80;7.90;;;;;;;;;;5030529;28;20235;-79
2021/03/06 00:38:53;;;;;;;9.07;8.07;;;;;;;;;;5043965;28;20231;-80
2021/03/06 00:41:21;;;;;;;9.27;8.30;;;;;;;;;;5034077;28;20599;-80
2021/03/06 00:43:48;;;;;;;9.43;8.43;;;;;;;;;;5050506;28;20233;-80
2021/03/06 00:46:17;;;;;;;10.37;8.03;;;;;;;;;;5052554;28;20235;-78
2021/03/06 00:48:44;;;;;;;9.27;7.67;;;;;;;;;;5057819;28;20693;-79
2021/03/06 00:51:12;;;;;;;10.00;8.00;;;;;;;;;;5045815;28;20232;-80
2021/03/06 00:53:40;;;;;;;9.70;8.70;;;;;;;;;;5067427;28;20238;-79
2021/03/06 00:56:08;;;;;;;10.03;8.47;;;;;;;;;;5059788;28;20232;-78
2021/03/06 00:58:37;;;;;;;10.10;8.30;;;;;;;;;;5068914;28;20250;-79
2021/03/06 01:01:05;;;;;;;9.83;8.43;;;;;;;;;;5053000;28;20220;-78
2021/03/06 01:03:34;;;;;;;9.87;8.87;;;;;;;;;;5056336;28;20241;-79
2021/03/06 01:06:02;;;;;;;10.13;7.97;;;;;;;;;;5067750;28;20249;-79
2021/03/06 01:08:29;;;;;;;9.87;8.43;;;;;;;;;;5064332;28;20238;-79
2021/03/06 01:10:57;;;;;;;9.53;8.47;;;;;;;;;;5041994;28;20610;-80
2021/03/06 01:13:26;;;;;;;10.27;9.27;;;;;;;;;;5036652;28;20705;-78
2021/03/06 01:15:53;;;;;;;10.37;8.47;;;;;;;;;;5035465;28;20246;-79
2021/03/06 01:18:21;;;;;;;9.30;7.77;;;;;;;;;;5054405;28;20211;-78
2021/03/06 01:20:50;;;;;;;9.43;8.10;;;;;;;;;;5059743;28;20215;-78
2021/03/06 01:23:19;;;;;;;10.00;8.40;;;;;;;;;;5070062;28;20215;-78
2021/03/06 01:25:46;;;;;;;14.10;8.30;;;;;;;;;;5050719;28;20226;-79
2021/03/06 01:28:15;;;;;;;9.93;8.43;;;;;;;;;;5053002;28;20254;-80
2021/03/06 01:30:42;;;;;;;10.27;8.47;;;;;;;;;;5057657;28;20231;-80
2021/03/06 01:33:10;;;;;;;9.67;8.20;;;;;;;;;;5039741;28;20229;-80
2021/03/06 01:35:38;;;;;;;9.90;7.97;;;;;;;;;;5040715;28;20231;-79
2021/03/06 01:38:06;;;;;;;11.27;8.27;;;;;;;;;;5051569;28;20266;-79
2021/03/06 01:40:35;;;;;;;10.13;8.87;;;;;;;;;;5030666;28;20226;-79
2021/03/06 01:43:05;;;;;;;10.17;8.93;;;;;;;;;;5050492;28;20227;-81
2021/03/06 01:45:33;;;;;;;10.70;8.13;;;;;;;;;;5032227;28;20239;-80
2021/03/06 01:48:01;;;;;;;10.10;8.70;;;;;;;;;;5052717;28;20227;-78
2021/03/06 01:50:30;;;;;;;9.97;8.03;;;;;;;;;;5047452;28;20639;-79
2021/03/06 01:52:59;;;;;;;9.80;8.30;;;;;;;;;;5045416;28;20234;-79
2021/03/06 01:55:28;;;;;;;10.60;8.83;;;;;;;;;;5041624;28;20240;-81
2021/03/06 01:57:55;;;;;;;11.13;8.47;;;;;;;;;;5041265;28;20215;-79
2021/03/06 02:00:30;;;;;;;10.27;8.43;;;;;;;;;;5015552;28;20420;-78
2021/03/06 02:02:59;;;;;;;11.30;8.60;;;;;;;;;;5051168;28;20239;-79
2021/03/06 02:05:27;;;;;;;10.60;9.10;;;;;;;;;;5033422;28;20235;-79
2021/03/06 02:07:55;;;;;;;10.77;8.97;;;;;;;;;;5023369;28;20227;-79
2021/03/06 02:10:28;;;;;;;11.17;9.00;;;;;;;;;;5035452;28;20346;-79
2021/03/06 02:13:03;;;;;;;9.63;8.63;;;;;;;;;;5026119;28;20221;-79
2021/03/06 02:15:42;;;;;;;12.50;9.60;;;;;;;;;;5044780;28;20704;-80
2021/03/06 02:18:14;;;;;;;12.00;9.43;;;;;;;;;;5042882;28;20732;-79
2021/03/06 02:20:57;;;;;;;10.27;8.73;;;;;;;;;;5050638;28;20219;-79
2021/03/06 02:23:45;;;;;;;11.80;9.13;;;;;;;;;;5044514;28;20712;-79
2021/03/06 02:26:26;;;;;;;11.10;9.30;;;;;;;;;;5017988;28;20251;-80
2021/03/06 02:29:03;;;;;;;11.33;9.30;;;;;;;;;;5041290;28;20224;-80
2021/03/06 02:31:33;;;;;;;10.03;8.97;;;;;;;;;;5045026;28;20234;-80
2021/03/06 02:34:02;;;;;;;12.07;9.53;;;;;;;;;;5030603;28;20227;-79
2021/03/06 02:36:32;;;;;;;14.00;9.93;;;;;;;;;;5033739;28;20235;-80
2021/03/06 02:39:01;;;;;;;12.97;9.97;;;;;;;;;;5041380;28;20245;-80
2021/03/06 02:41:31;;;;;;;10.10;8.80;;;;;;;;;;5044617;28;20224;-80
2021/03/06 02:44:01;;;;;;;10.60;8.97;;;;;;;;;;5014248;28;20224;-79
2021/03/06 02:46:29;;;;;;;12.17;9.30;;;;;;;;;;5049724;28;20228;-78
2021/03/06 02:48:58;;;;;;;9.90;8.57;;;;;;;;;;5066235;28;20224;-79
2021/03/06 02:51:36;;;;;;;11.07;9.23;;;;;;;;;;5041101;28;20239;-80
2021/03/06 02:54:04;;;;;;;10.23;8.93;;;;;;;;;;5043854;28;20243;-78
2021/03/06 02:56:32;;;;;;;10.30;8.83;;;;;;;;;;5068463;28;20226;-79
2021/03/06 02:59:10;;;;;;;12.60;9.93;;;;;;;;;;5069729;28;20214;-78
2021/03/06 03:01:45;;;;;;;11.93;8.97;;;;;;;;;;5058311;28;20218;-79
2021/03/06 03:04:18;;;;;;;10.67;8.83;;;;;;;;;;5065833;28;20203;-78
2021/03/06 03:06:47;;;;;;;11.73;8.83;;;;;;;;;;5063889;28;20246;-80
2021/03/06 03:09:19;;;;;;;10.50;8.83;;;;;;;;;;5038339;28;20223;-80
2021/03/06 03:11:50;;;;;;;10.17;8.33;;;;;;;;;;5046078;28;20215;-79
2021/03/06 03:14:24;;;;;;;11.63;9.07;;;;;;;;;;5046409;28;20693;-79
2021/03/06 03:16:55;;;;;;;11.20;9.23;;;;;;;;;;5062130;28;20228;-79
2021/03/06 03:19:30;;;;;;;10.07;8.73;;;;;;;;;;5049322;28;20224;-80
2021/03/06 03:21:59;;;;;;;9.63;8.60;;;;;;;;;;5033971;28;20233;-80
2021/03/06 03:24:30;;;;;;;11.00;8.67;;;;;;;;;;5042582;28;20227;-79
2021/03/06 03:26:57;;;;;;;11.47;9.57;;;;;;;;;;5031183;28;20238;-80
2021/03/06 03:29:26;;;;;;;10.43;8.67;;;;;;;;;;5061936;28;20226;-79
2021/03/06 03:31:54;;;;;;;10.90;8.37;;;;;;;;;;5051226;28;20237;-79
2021/03/06 03:34:22;;;;;;;10.90;9.40;;;;;;;;;;5054644;28;20242;-80
2021/03/06 03:36:53;;;;;;;10.80;9.30;;;;;;;;;;5051280;28;20700;-80
2021/03/06 03:39:20;;;;;;;11.73;8.60;;;;;;;;;;5048688;28;20227;-79
2021/03/06 03:41:48;;;;;;;10.10;9.00;;;;;;;;;;5047135;28;20229;-79
2021/03/06 03:44:16;;;;;;;13.10;9.33;;;;;;;;;;5050331;28;20227;-79
2021/03/06 03:46:44;;;;;;;11.43;8.00;;;;;;;;;;5052828;28;20597;-78
2021/03/06 03:49:14;;;;;;;10.77;8.70;;;;;;;;;;5055424;28;20552;-81
2021/03/06 03:51:41;;;;;;;11.80;8.77;;;;;;;;;;5035180;28;20227;-81
2021/03/06 03:54:10;;;;;;;9.87;8.33;;;;;;;;;;5042634;28;20231;-80
2021/03/06 03:56:38;;;;;;;10.13;8.97;;;;;;;;;;5043037;28;20238;-80
2021/03/06 03:59:06;;;;;;;12.07;9.47;;;;;;;;;;5043345;28;20246;-79
2021/03/06 04:01:41;;;;;;;11.00;9.40;;;;;;;;;;5043259;28;20247;-81
2021/03/06 04:04:15;;;;;;;9.93;8.63;;;;;;;;;;5049842;28;20234;-80
2021/03/06 04:06:42;;;;;;;10.17;8.43;;;;;;;;;;5051865;28;20230;-79
2021/03/06 04:09:10;;;;;;;11.97;10.30;;;;;;;;;;5043147;28;20600;-79
2021/03/06 04:11:38;;;;;;;10.77;8.93;;;;;;;;;;5039257;28;20226;-79
2021/03/06 04:14:06;;;;;;;11.37;9.37;;;;;;;;;;5072904;28;20237;-78
2021/03/06 04:16:34;;;;;;;12.90;9.97;;;;;;;;;;5065294;28;20235;-79
2021/03/06 04:19:02;;;;;;;11.10;9.33;;;;;;;;;;5050564;28;20218;-78
2021/03/06 04:21:29;;;;;;;11.40;9.73;;;;;;;;;;5042703;28;20236;-80
2021/03/06 04:23:58;;;;;;;12.53;10.30;;;;;;;;;;5059547;28;20233;-79
2021/03/06 04:26:33;;;;;;;12.23;10.80;;;;;;;;;;5068848;28;20229;-79
2021/03/06 04:29:01;;;;;;;12.93;10.13;;;;;;;;;;5046065;28;20605;-79
2021/03/06 04:31:28;;;;;;;11.20;10.00;;;;;;;;;;5043853;28;20727;-79
2021/03/06 04:33:56;;;;;;;13.00;10.13;;;;;;;;;;5049611;28;20238;-79
2021/03/06 04:36:23;;;;;;;12.83;9.73;;;;;;;;;;5038600;28;20228;-79
2021/03/06 04:38:51;;;;;;;11.27;9.90;;;;;;;;;;5046695;28;20239;-79
2021/03/06 04:41:18;;;;;;;12.50;9.97;;;;;;;;;;5046333;28;20231;-79
2021/03/06 04:43:47;;;;;;;10.97;9.47;;;;;;;;;;5042087;28;20238;-79
2021/03/06 04:46:14;;;;;;;13.27;10.87;;;;;;;;;;5042978;28;20242;-80
2021/03/06 04:48:42;;;;;;;12.00;10.70;;;;;;;;;;5051151;28;20219;-78
2021/03/06 04:51:10;;;;;;;13.30;10.97;;;;;;;;;;5034076;28;20231;-79
2021/03/06 04:53:37;;;;;;;12.80;10.77;;;;;;;;;;5051372;28;20415;-79
2021/03/06 04:56:05;;;;;;;12.30;10.37;;;;;;;;;;5051635;28;20701;-80
2021/03/06 04:58:32;;;;;;;13.37;10.77;;;;;;;;;;5052962;28;20568;-79
2021/03/06 05:01:01;;;;;;;12.93;10.53;;;;;;;;;;5041061;28;20235;-79
2021/03/06 05:03:29;;;;;;;13.53;11.30;;;;;;;;;;5049704;28;20722;-79
2021/03/06 05:05:56;;;;;;;12.57;10.83;;;;;;;;;;5044503;28;20243;-79
2021/03/06 05:08:24;;;;;;;13.23;10.77;;;;;;;;;;5032004;28;20227;-79
2021/03/06 05:10:51;;;;;;;13.03;10.73;;;;;;;;;;5024475;28;20228;-79
2021/03/06 05:13:19;;;;;;;13.97;11.20;;;;;;;;;;5054596;28;20226;-81
2021/03/06 05:15:47;;;;;;;13.27;10.73;;;;;;;;;;5043323;28;20227;-80
2021/03/06 05:18:15;;;;;;;12.37;10.97;;;;;;;;;;5042706;28;20616;-79
2021/03/06 05:20:43;;;;;;;12.47;10.73;;;;;;;;;;5050702;28;20223;-80
2021/03/06 05:23:10;;;;;;;13.77;11.60;;;;;;;;;;5045788;28;20600;-79
2021/03/06 05:25:40;;;;;;;15.13;11.03;;;;;;;;;;5053702;28;20223;-79
2021/03/06 05:28:08;;;;;;;12.43;10.87;;;;;;;;;;5048897;28;20228;-79
2021/03/06 05:30:35;;;;;;;13.53;11.10;;;;;;;;;;5066538;28;20225;-79
2021/03/06 05:33:03;;;;;;;12.70;10.77;;;;;;;;;;5055671;28;20220;-78
2021/03/06 05:35:32;;;;;;;13.43;10.77;;;;;;;;;;5042937;28;20219;-79
2021/03/06 05:37:59;;;;;;;13.57;11.40;;;;;;;;;;5065005;28;20222;-79
2021/03/06 05:40:30;;;;;;;12.87;10.97;;;;;;;;;;5057201;28;20227;-79
2021/03/06 05:42:57;;;;;;;12.17;10.80;;;;;;;;;;5058832;28;20231;-79
2021/03/06 05:45:25;;;;;;;13.30;10.27;;;;;;;;;;5062876;28;20406;-80
2021/03/06 05:47:52;;;;;;;12.27;9.83;;;;;;;;;;5051106;28;20596;-80
2021/03/06 05:50:21;;;;;;;13.03;10.50;;;;;;;;;;5039685;28;20223;-80
2021/03/06 05:52:50;;;;;;;12.00;9.60;;;;;;;;;;5042244;28;20227;-80
2021/03/06 05:55:19;;;;;;;13.70;11.27;;;;;;;;;;5047200;28;20230;-79
2021/03/06 05:57:55;;;;;;;13.50;11.77;;;;;;;;;;5037033;28;20223;-79
2021/03/06 06:00:23;;;;;;;13.13;10.67;;;;;;;;;;5042213;28;20238;-79
2021/03/06 06:02:56;;;;;;;13.43;10.83;;;;;;;;;;5049432;28;20233;-79
2021/03/06 06:05:24;;;;;;;12.83;10.80;;;;;;;;;;5048275;28;20243;-80
2021/03/06 06:07:55;;;;;;;12.67;10.87;;;;;;;;;;5035759;28;20720;-79
2021/03/06 06:10:23;;;;;;;13.30;10.83;;;;;;;;;;5019024;28;20739;-78
2021/03/06 06:12:50;;;;;;;14.67;11.30;;;;;;;;;;5028335;28;20617;-79
2021/03/06 06:15:22;;;;;;;12.57;10.30;;;;;;;;;;5029451;28;20246;-79
2021/03/06 06:17:49;;;;;;;13.57;10.70;;;;;;;;;;5040185;28;20222;-78
2021/03/06 06:20:18;;;;;;;12.90;10.20;;;;;;;;;;5049554;28;20608;-79
2021/03/06 06:22:45;;;;;;;12.50;11.10;;;;;;;;;;5023834;28;20222;-79
2021/03/06 06:25:32;;;;;;;15.87;12.40;;;;;;;;;;5051828;28;20238;-80
2021/03/06 06:28:16;;;;;;;13.03;11.63;;;;;;;;;;5031228;28;20249;-78
2021/03/06 06:30:43;;;;;;;14.27;12.13;;;;;;;;;;5051903;28;20223;-79
2021/03/06 06:33:12;;;;;;;13.73;11.60;;;;;;;;;;5052253;28;20234;-79
2021/03/06 06:35:41;;;;;;;14.10;11.40;;;;;;;;;;5045557;28;20238;-80
2021/03/06 06:38:09;;;;;;;13.70;12.17;;;;;;;;;;5049177;28;20223;-79
2021/03/06 06:40:39;;;;;;;13.53;10.87;;;;;;;;;;5047156;28;20245;-80
2021/03/06 06:43:23;;;;;;;13.33;10.80;;;;;;;;;;5050469;28;20233;-78
2021/03/06 06:45:51;;;;;;;13.13;11.33;;;;;;;;;;5050204;28;20230;-78
2021/03/06 06:48:20;;;;;;;12.57;11.27;;;;;;;;;;5045404;28;20229;-79
2021/03/06 06:50:47;;;;;;;12.13;10.77;;;;;;;;;;5052052;28;20728;-79
2021/03/06 06:53:25;;;;;;;12.73;10.50;;;;;;;;;;5047416;28;20227;-78
2021/03/06 06:55:54;;;;;;;12.73;10.67;;;;;;;;;;5051704;28;20241;-79
2021/03/06 06:58:41;;;;;;;13.67;11.20;;;;;;;;;;5067234;28;20608;-78
2021/03/06 07:01:30;;;;;;;13.53;10.83;;;;;;;;;;5026241;28;20220;-78
2021/03/06 07:04:00;;;;;;;15.43;11.47;;;;;;;;;;5046354;28;20222;-78
2021/03/06 07:06:27;;;;;;;14.13;11.57;;;;;;;;;;5050818;28;20220;-77
2021/03/06 07:09:05;;;;;;;14.23;11.50;;;;;;;;;;5051001;28;20224;-78
2021/03/06 07:11:34;;;;;;;14.67;12.37;;;;;;;;;;5040094;28;20839;-79
2021/03/06 07:14:02;;;;;;;15.33;12.80;;;;;;;;;;5043436;28;20222;-79
2021/03/06 07:17:00;;;;;;;14.40;12.10;;;;;;;;;;5048806;28;20594;-79
2021/03/06 07:19:30;;;;;;;15.53;12.73;;;;;;;;;;5038381;28;20238;-79
2021/03/06 07:21:59;;;;;;;14.40;12.47;;;;;;;;;;5032986;28;20238;-80
2021/03/06 07:24:27;;;;;;;15.33;11.50;;;;;;;;;;5026762;28;20246;-79
2021/03/06 07:26:56;;;;;;;16.23;12.37;;;;;;;;;;5039933;28;20231;-79
2021/03/06 07:29:24;;;;;;;14.03;11.80;;;;;;;;;;5048182;28;20226;-79
2021/03/06 07:31:53;;;;;;;13.87;11.60;;;;;;;;;;5037111;28;20231;-79
2021/03/06 07:34:22;;;;;;;15.10;12.30;;;;;;;;;;5044809;28;20487;-79
2021/03/06 07:36:51;;;;;;;13.90;11.80;;;;;;;;;;5071398;28;20245;-79
2021/03/06 07:39:19;;;;;;;13.97;12.40;;;;;;;;;;5055416;28;20221;-79
2021/03/06 07:41:49;;;;;;;13.97;11.87;;;;;;;;;;5064401;28;20739;-78
2021/03/06 07:44:19;;;;;;;14.47;11.13;;;;;;;;;;5064017;28;20218;-77
2021/03/06 07:46:47;;;;;;;15.70;12.90;;;;;;;;;;5068955;28;20215;-79
2021/03/06 07:49:16;;;;;;;14.37;12.27;;;;;;;;;;5062409;28;20239;-77
2021/03/06 07:51:45;;;;;;;13.27;11.70;;;;;;;;;;5063697;28;20233;-79
2021/03/06 07:54:14;;;;;;;14.57;11.80;;;;;;;;;;5028489;28;20225;-80
2021/03/06 07:56:42;;;;;;;13.20;11.10;;;;;;;;;;5048489;28;20601;-80
2021/03/06 07:59:50;;;;;;;13.17;11.37;;;;;;;;;;5051738;28;20234;-79
2021/03/06 08:02:37;;;;;;;13.17;11.77;;;;;;;;;;5046776;28;20234;-79
2021/03/06 08:05:08;;;;;;;13.77;11.63;;;;;;;;;;5052950;28;20739;-80
2021/03/06 08:07:41;;;;;;;14.47;11.83;;;;;;;;;;5025880;28;20228;-80
2021/03/06 08:10:10;;;;;;;13.27;11.83;;;;;;;;;;5051565;28;20223;-79
2021/03/06 08:12:38;;;;;;;12.37;10.87;;;;;;;;;;5065700;28;20231;-80
2021/03/06 08:15:28;;;;;;;15.23;11.07;;;;;;;;;;5043864;28;20227;-80
2021/03/06 08:17:57;;;;;;;12.13;10.47;;;;;;;;;;5037092;28;20238;-80
2021/03/06 08:20:29;;;;;;;13.67;10.47;;;;;;;;;;5066236;28;20234;-79
2021/03/06 08:23:20;;;;;;;11.63;9.77;;;;;;;;;;5022598;28;20229;-80
2021/03/06 08:25:49;;;;;;;15.87;8.27;;;;;;;;;;5049453;28;20220;-81
2021/03/06 08:28:25;;;;;;;12.13;9.10;;;;;;;;;;5052219;28;20231;-80
2021/03/06 08:30:54;;;;;;;13.37;9.23;;;;;;;;;;5052932;28;20254;-80
2021/03/06 08:33:24;;;;;;;10.50;8.47;;;;;;;;;;5039541;28;20227;-81
2021/03/06 08:36:24;;;;;;;11.20;8.70;;;;;;;;;;5031265;28;20223;-79
2021/03/06 08:38:52;;;;;;;14.30;9.00;;;;;;;;;;5039044;28;20219;-79
2021/03/06 08:41:19;;;;;;;10.63;8.37;;;;;;;;;;5043452;28;20219;-82
2021/03/06 08:43:47;;;;;;;12.50;9.53;;;;;;;;;;5044075;28;20224;-81
2021/03/06 08:46:15;;;;;;;12.90;9.03;;;;;;;;;;5038667;28;20343;-81
2021/03/06 08:48:43;;;;;;;12.53;9.53;;;;;;;;;;5045494;28;20234;-80
2021/03/06 08:51:11;;;;;;;13.20;8.93;;;;;;;;;;5051044;28;20240;-81
2021/03/06 08:53:38;;;;;;;11.97;8.77;;;;;;;;;;5043184;28;20235;-81
2021/03/06 08:56:06;;;;;;;12.20;9.00;;;;;;;;;;5048353;28;20245;-80
2021/03/06 08:58:48;;;;;;;12.17;9.50;;;;;;;;;;5052947;28;20465;-81
2021/03/06 09:01:17;;;;;;;12.27;9.80;;;;;;;;;;5029274;28;20218;-80
2021/03/06 09:03:48;;;;;;;13.00;10.30;;;;;;;;;;5049494;28;20617;-80
2021/03/06 09:06:17;;;;;;;14.40;10.00;;;;;;;;;;5035625;28;20231;-82
2021/03/06 09:08:53;;;;;;;12.03;9.57;;;;;;;;;;5019332;28;20218;-80
2021/03/06 09:11:21;;;;;;;12.87;10.40;;;;;;;;;;5052126;28;20268;-81
2021/03/06 09:13:49;;;;;;;14.27;10.40;;;;;;;;;;5048873;28;20247;-83
2021/03/06 09:16:17;;;;;;;11.37;10.13;;;;;;;;;;5064710;28;20242;-80
2021/03/06 09:18:45;;;;;;;12.60;9.43;;;;;;;;;;5043241;28;20622;-79
2021/03/06 09:21:15;;;;;;;11.43;10.03;;;;;;;;;;5067877;28;20579;-82
2021/03/06 09:23:44;;;;;;;13.43;10.67;;;;;;;;;;4995937;28;20216;-80
2021/03/06 09:26:14;;;;;;;12.37;10.40;;;;;;;;;;5026042;28;20718;-79
2021/03/06 09:28:43;;;;;;;15.43;9.97;;;;;;;;;;5027027;28;20218;-79
2021/03/06 09:31:12;;;;;;;13.03;10.37;;;;;;;;;;5035816;28;20262;-78
2021/03/06 09:33:42;;;;;;;11.03;9.83;;;;;;;;;;5050262;28;20215;-81
2021/03/06 09:36:12;;;;;;;11.93;10.23;;;;;;;;;;5042886;28;20219;-81
2021/03/06 09:38:47;;;;;;;14.37;10.73;;;;;;;;;;5025101;28;20283;-79
2021/03/06 09:41:16;;;;;;;14.40;11.20;;;;;;;;;;5022696;28;20227;-88
2021/03/06 09:43:50;;;;;;;12.97;10.50;;;;;;;;;;5045862;28;20231;-80
2021/03/06 09:46:20;;;;;;;13.70;10.90;;;;;;;;;;5040467;28;20226;-81
2021/03/06 09:48:50;;;;;;;13.10;10.93;;;;;;;;;;5034197;28;20220;-79
2021/03/06 09:51:18;;;;;;;11.70;10.00;;;;;;;;;;5030503;28;20227;-81
2021/03/06 09:53:55;;;;;;;13.57;10.83;;;;;;;;;;5031533;28;20669;-81
2021/03/06 09:56:23;;;;;;;12.33;9.97;;;;;;;;;;5061572;28;20233;-85
2021/03/06 09:58:58;;;;;;;39.07;12.67;;;;;;;;;;5044068;28;20237;-82
2021/03/06 10:01:26;;;;;;;11.97;10.10;;;;;;;;;;5058197;28;20410;-82
2021/03/06 10:03:55;;;;;;;11.57;10.30;;;;;;;;;;5038797;28;20224;-79
2021/03/06 10:06:24;;;;;;;13.43;10.63;;;;;;;;;;5035715;28;20242;-83
2021/03/06 10:08:53;;;;;;;11.83;9.73;;;;;;;;;;5060703;28;20235;-81
2021/03/06 10:11:27;;;;;;;11.97;10.37;;;;;;;;;;5041606;28;20216;-82
2021/03/06 10:13:55;;;;;;;12.43;10.20;;;;;;;;;;5040984;28;20216;-86
2021/03/06 10:16:23;;;;;;;12.57;10.90;;;;;;;;;;5093377;28;20227;-85
2021/03/06 10:18:51;;;;;;;11.07;9.20;;;;;;;;;;5075950;28;20206;-85
2021/03/06 10:21:21;;;;;;;13.20;10.87;;;;;;;;;;5069887;28;20229;-78
2021/03/06 10:23:50;;;;;;;12.13;10.40;;;;;;;;;;5051496;28;20224;-81
2021/03/06 10:26:23;;;;;;;12.40;10.97;;;;;;;;;;5032603;28;20235;-82
2021/03/06 10:28:53;;;;;;;12.47;11.17;;;;;;;;;;5035901;28;20231;-80
2021/03/06 10:31:26;;;;;;;12.37;11.00;;;;;;;;;;5047758;28;20743;-80
2021/03/06 10:33:54;;;;;;;13.07;11.00;;;;;;;;;;5046369;28;20244;-79
2021/03/06 10:36:23;;;;;;;11.27;9.33;;;;;;;;;;5042939;28;20235;-82
2021/03/06 10:39:11;;;;;;;11.83;10.57;;;;;;;;;;5067530;28;20231;-79
2021/03/06 10:41:38;;;;;;;11.50;10.30;;;;;;;;;;5053186;28;20223;-86
2021/03/06 10:44:07;;;;;;;12.60;10.70;;;;;;;;;;5038207;28;20250;-85
2021/03/06 10:46:35;;;;;;;11.63;10.03;;;;;;;;;;5042663;28;20231;-85
2021/03/06 10:49:05;;;;;;;11.67;9.90;;;;;;;;;;5029406;28;20598;-80
2021/03/06 10:51:42;;;;;;;10.90;9.47;;;;;;;;;;5055611;28;20224;-81
2021/03/06 10:54:10;;;;;;;11.97;9.67;;;;;;;;;;5072302;28;20610;-80
2021/03/06 10:56:39;;;;;;;11.37;9.87;;;;;;;;;;5046465;28;20232;-82
2021/03/06 10:59:07;;;;;;;10.93;9.43;;;;;;;;;;5030675;28;20224;-80
2021/03/06 11:01:45;;;;;;;11.10;9.90;;;;;;;;;;5049915;28;20223;-82
2021/03/06 11:04:26;;;;;;;11.70;10.37;;;;;;;;;;5057138;28;20231;-84
2021/03/06 11:06:56;;;;;;;10.90;9.63;;;;;;;;;;5070630;28;20233;-84
2021/03/06 11:09:25;;;;;;;10.97;9.87;;;;;;;;;;5068572;28;20224;-83
2021/03/06 11:11:53;;;;;;;12.80;9.80;;;;;;;;;;5064129;28;20410;-80
2021/03/06 11:14:25;;;;;;;11.30;10.10;;;;;;;;;;5059572;28;20243;-80
2021/03/06 11:16:54;;;;;;;10.17;9.07;;;;;;;;;;5058159;28;20219;-81
2021/03/06 11:19:24;;;;;;;10.90;9.77;;;;;;;;;;5050608;28;20227;-81
2021/03/06 11:21:52;;;;;;;11.27;9.63;;;;;;;;;;5020589;28;20226;-87
2021/03/06 11:24:20;;;;;;;10.43;8.90;;;;;;;;;;5029201;28;20738;-83
2021/03/06 11:26:48;;;;;;;10.40;9.30;;;;;;;;;;5049453;28;20692;-84
2021/03/06 11:29:15;;;;;;;11.67;9.90;;;;;;;;;;5057836;28;20709;-84
2021/03/06 11:31:55;;;;;;;11.33;10.13;;;;;;;;;;5041243;28;20693;-90
2021/03/06 11:34:23;;;;;;;12.93;9.57;;;;;;;;;;5037775;28;20224;-83
2021/03/06 11:36:51;;;;;;;13.07;9.63;;;;;;;;;;5016768;28;20235;-79
2021/03/06 11:39:20;;;;;;;12.90;9.67;;;;;;;;;;5059735;28;20708;-80
2021/03/06 11:41:47;;;;;;;13.10;10.10;;;;;;;;;;5052500;28;20908;-81
2021/03/06 11:44:15;;;;;;;10.73;9.30;;;;;;;;;;5032084;28;20236;-80
2021/03/06 11:46:42;;;;;;;11.43;10.23;;;;;;;;;;5033716;28;20748;-81
2021/03/06 11:49:11;;;;;;;11.93;10.30;;;;;;;;;;5041288;28;20235;-83
2021/03/06 11:51:38;;;;;;;13.57;10.07;;;;;;;;;;5028114;28;20238;-80
2021/03/06 11:54:06;;;;;;;13.70;10.20;;;;;;;;;;5056218;28;20227;-82
2021/03/06 11:56:35;;;;;;;11.23;9.90;;;;;;;;;;5041579;28;20235;-80
2021/03/06 11:59:03;;;;;;;11.40;9.53;;;;;;;;;;5057713;28;20229;-79
2021/03/06 12:01:31;;;;;;;10.70;9.63;;;;;;;;;;5053090;28;20574;-81
2021/03/06 12:03:58;;;;;;;10.57;9.33;;;;;;;;;;5045374;28;20231;-80
2021/03/06 12:06:26;;;;;;;12.63;9.83;;;;;;;;;;5054267;28;20232;-83
2021/03/06 12:08:53;;;;;;;11.53;10.33;;;;;;;;;;5036949;28;20696;-79
2021/03/06 12:11:21;;;;;;;10.23;9.23;;;;;;;;;;5029206;28;20251;-80
2021/03/06 12:13:50;;;;;;;11.63;10.20;;;;;;;;;;5030470;28;20242;-79
2021/03/06 12:16:17;;;;;;;10.37;9.37;;;;;;;;;;5053003;28;20736;-83
2021/03/06 12:18:45;;;;;;;11.53;10.33;;;;;;;;;;5042510;28;20617;-80
2021/03/06 12:21:13;;;;;;;14.07;9.87;;;;;;;;;;5017602;28;20221;-86
2021/03/06 12:23:42;;;;;;;13.50;11.17;;;;;;;;;;5047310;28;20215;-84
2021/03/06 12:26:10;;;;;;;12.67;10.23;;;;;;;;;;5036008;28;20238;-82
2021/03/06 12:28:37;;;;;;;10.60;9.60;;;;;;;;;;5038442;28;20231;-85
2021/03/06 12:31:06;;;;;;;11.27;10.17;;;;;;;;;;5036122;28;20230;-86
2021/03/06 12:33:34;;;;;;;11.30;10.10;;;;;;;;;;5059053;28;20234;-80
2021/03/06 12:36:02;;;;;;;12.03;10.83;;;;;;;;;;5046562;28;20227;-80
2021/03/06 12:38:29;;;;;;;11.63;10.60;;;;;;;;;;5036685;28;20250;-82
2021/03/06 12:40:58;;;;;;;11.20;10.10;;;;;;;;;;5038582;28;20256;-80
2021/03/06 12:43:26;;;;;;;10.63;9.60;;;;;;;;;;5017627;28;20227;-85
2021/03/06 12:45:54;;;;;;;12.03;10.83;;;;;;;;;;5051091;28;20230;-81
2021/03/06 12:48:22;;;;;;;12.63;10.73;;;;;;;;;;5018712;28;20244;-86
2021/03/06 12:50:50;;;;;;;12.13;10.93;;;;;;;;;;5054817;28;20227;-84
2021/03/06 12:53:19;;;;;;;11.37;10.23;;;;;;;;;;5045034;28;20208;-88
2021/03/06 12:55:46;;;;;;;10.57;9.47;;;;;;;;;;5046856;28;20632;-81
2021/03/06 12:58:14;;;;;;;11.23;10.13;;;;;;;;;;5038897;28;20222;-90
2021/03/06 13:00:41;;;;;;;12.40;11.17;;;;;;;;;;5052495;28;20219;-86
2021/03/06 13:03:09;;;;;;;13.03;11.60;;;;;;;;;;5041420;28;20227;-81
2021/03/06 13:05:38;;;;;;;12.97;11.57;;;;;;;;;;5050128;28;20243;-81
2021/03/06 13:08:06;;;;;;;11.93;10.73;;;;;;;;;;5038872;28;20227;-80
2021/03/06 13:10:33;;;;;;;11.70;9.90;;;;;;;;;;5032220;28;20246;-80
2021/03/06 13:13:02;;;;;;;12.23;11.10;;;;;;;;;;5049645;28;20231;-83
2021/03/06 13:15:29;;;;;;;12.47;11.27;;;;;;;;;;5035134;28;20227;-80
2021/03/06 13:17:57;;;;;;;12.47;11.37;;;;;;;;;;5033280;28;20232;-83
2021/03/06 13:20:26;;;;;;;17.83;16.03;;;;;;;;;;5037475;28;20231;-80
2021/03/06 13:22:55;;;;;;;11.98;10.93;;;;;;;;;;5043523;28;20239;-81
2021/03/06 13:25:22;;;;;;;12.13;11.02;;;;;;;;;;5043191;28;20224;-83
2021/03/06 13:27:50;;;;;;;11.90;10.80;;;;;;;;;;5052770;28;20219;-86
2021/03/06 13:30:19;;;;;;;12.30;11.10;;;;;;;;;;5038299;28;20583;-82
2021/03/06 13:32:46;;;;;;;12.40;11.20;;;;;;;;;;5037645;28;20234;-84
2021/03/06 13:35:14;;;;;;;11.25;10.13;;;;;;;;;;5051501;28;20605;-82
2021/03/06 13:37:42;;;;;;;11.55;10.50;;;;;;;;;;5025018;28;20220;-80
2021/03/06 13:40:12;;;;;;;11.10;10.10;;;;;;;;;;5024719;28;20219;-81
2021/03/06 13:42:42;;;;;;;12.75;11.52;;;;;;;;;;5033529;28;20227;-86
2021/03/06 13:45:11;;;;;;;11.95;10.95;;;;;;;;;;5040043;28;20235;-81
2021/03/06 13:47:38;;;;;;;11.00;10.00;;;;;;;;;;5051488;28;20249;-84
2021/03/06 13:50:08;;;;;;;12.50;11.40;;;;;;;;;;5033528;28;20235;-85
2021/03/06 13:52:36;;;;;;;11.13;10.02;;;;;;;;;;5052573;28;20227;-79
2021/03/06 13:55:05;;;;;;;10.63;9.73;;;;;;;;;;5041094;28;20234;-79
2021/03/06 13:57:34;;;;;;;11.13;9.98;;;;;;;;;;5043722;28;20835;-83
2021/03/06 14:00:03;;;;;;;18.85;17.15;;;;;;;;;;5065914;28;20592;-80
2021/03/06 14:02:32;;;;;;;12.57;11.48;;;;;;;;;;5045171;28;20220;-82
2021/03/06 14:05:00;;;;;;;11.82;10.73;;;;;;;;;;5032757;28;20220;-80
2021/03/06 14:07:27;;;;;;;13.00;11.80;;;;;;;;;;5056848;28;20231;-81
2021/03/06 14:09:55;;;;;;;12.50;11.35;;;;;;;;;;5039844;28;20227;-89
2021/03/06 14:12:23;;;;;;;12.75;11.65;;;;;;;;;;5047537;28;20234;-89
2021/03/06 14:14:52;;;;;;;11.55;10.35;;;;;;;;;;5068245;28;20217;-88
2021/03/06 14:17:20;;;;;;;10.85;9.77;;;;;;;;;;5071929;28;20234;-89
2021/03/06 14:19:48;;;;;;;10.33;9.43;;;;;;;;;;5079916;28;20225;-87
2021/03/06 14:22:15;;;;;;;10.90;9.80;;;;;;;;;;5059662;28;20216;-89
2021/03/06 14:24:43;;;;;;;11.50;10.30;;;;;;;;;;5038594;28;20793;-86
2021/03/06 14:27:14;;;;;;;10.40;9.40;;;;;;;;;;5048511;28;20253;-86
2021/03/06 14:29:54;;;;;;;10.83;9.73;;;;;;;;;;5052718;28;20230;-87
2021/03/06 14:32:22;;;;;;;10.53;9.43;;;;;;;;;;5038362;28;20234;-82
2021/03/06 14:34:50;;;;;;;10.40;9.30;;;;;;;;;;5054104;28;20252;-82
2021/03/06 14:37:18;;;;;;;10.80;9.53;;;;;;;;;;5031370;28;20705;-84
2021/03/06 14:39:45;;;;;;;10.97;9.87;;;;;;;;;;5047176;28;20227;-80